Time;durP1;ratioP1;P1;durP2;ratioP2;P2;SDS_P1;SDS_P2;PMS_P1;PMS_P2;Temp;Humidity;BMP_temperature;BMP_pressure;BME280_temperature;BME280_humidity;BME280_pressure;Samples;Min_cycle;Max_cycle;Signal;HPM_P1;HPM_P2
2023/10/20 00:00:52;;;;;;;9.00;8.00;;;19.10;70.50;20.70;98440.00;;;;5042522;28;20211;-75
2023/10/20 00:03:19;;;;;;;10.30;8.63;;;19.20;70.60;20.70;98439.00;;;;5038519;28;20208;-76
2023/10/20 00:05:46;;;;;;;9.27;8.30;;;19.20;70.60;20.70;98451.00;;;;5032670;28;20223;-76
2023/10/20 00:08:13;;;;;;;9.52;8.27;;;19.10;70.50;20.70;98442.00;;;;5046643;28;20204;-76
2023/10/20 00:10:40;;;;;;;9.32;8.13;;;19.20;70.60;20.70;98438.00;;;;5041626;28;20684;-76
2023/10/20 00:13:08;;;;;;;9.55;8.60;;;19.10;70.50;20.70;98432.00;;;;5042119;28;20208;-76
2023/10/20 00:15:37;;;;;;;9.48;8.57;;;19.20;70.60;20.70;98431.00;;;;5031417;28;20188;-76
2023/10/20 00:18:05;;;;;;;9.93;8.63;;;19.10;70.50;20.70;98434.00;;;;5029578;28;20240;-76
2023/10/20 00:20:33;;;;;;;9.82;8.80;;;19.10;70.50;20.70;98437.00;;;;5043685;28;20688;-76
2023/10/20 00:23:00;;;;;;;9.73;8.73;;;19.10;70.50;20.70;98430.00;;;;5041974;28;20581;-75
2023/10/20 00:25:27;;;;;;;8.82;7.75;;;19.10;70.50;20.70;98433.00;;;;5049625;28;20211;-76
2023/10/20 00:27:55;;;;;;;12.02;8.48;;;19.10;70.50;20.70;98431.00;;;;5029911;28;20196;-76
2023/10/20 00:30:22;;;;;;;8.98;8.00;;;19.10;70.50;20.70;98433.00;;;;5044765;28;20196;-76
2023/10/20 00:32:49;;;;;;;10.20;8.45;;;19.10;70.50;20.70;98424.00;;;;5034739;28;20205;-76
2023/10/20 00:35:18;;;;;;;8.90;7.68;;;19.10;70.60;20.70;98435.00;;;;5032572;28;20207;-76
2023/10/20 00:37:45;;;;;;;7.18;6.47;;;19.10;70.60;20.70;98428.00;;;;5043282;28;20234;-76
2023/10/20 00:40:13;;;;;;;10.75;8.10;;;19.10;70.60;20.70;98422.00;;;;5043838;28;20195;-75
2023/10/20 00:42:40;;;;;;;8.35;7.55;;;19.10;70.60;20.70;98419.00;;;;5030731;28;20698;-75
2023/10/20 00:45:10;;;;;;;10.18;8.00;;;19.10;70.50;20.70;98413.00;;;;5036033;28;20196;-75
2023/10/20 00:47:40;;;;;;;8.52;7.70;;;19.10;70.50;20.60;98410.00;;;;5049330;28;20210;-76
2023/10/20 00:50:11;;;;;;;10.77;8.48;;;19.10;70.50;20.60;98411.00;;;;5041446;28;20203;-76
2023/10/20 00:52:43;;;;;;;9.18;8.27;;;19.10;70.50;20.60;98410.00;;;;5047344;28;20251;-76
2023/10/20 00:55:14;;;;;;;9.07;8.10;;;19.10;70.50;20.60;98398.00;;;;5045881;28;20211;-76
2023/10/20 00:57:44;;;;;;;9.02;8.18;;;19.10;70.50;20.60;98402.00;;;;5043866;28;20223;-76
2023/10/20 01:00:13;;;;;;;10.05;8.27;;;19.10;70.50;20.60;98396.00;;;;5039846;28;20208;-76
2023/10/20 01:02:41;;;;;;;8.55;7.45;;;19.10;70.50;20.60;98389.00;;;;5028648;28;20232;-76
2023/10/20 01:05:09;;;;;;;10.30;8.40;;;19.10;70.50;20.60;98386.00;;;;5029676;28;20662;-75
2023/10/20 01:07:36;;;;;;;9.75;8.10;;;19.10;70.60;20.60;98366.00;;;;5037887;28;20553;-75
2023/10/20 01:10:09;;;;;;;9.23;7.40;;;19.10;70.50;20.60;98358.00;;;;5041112;28;20214;-75
2023/10/20 01:12:36;;;;;;;8.75;7.88;;;19.10;70.50;20.60;98356.00;;;;5036397;28;21098;-75
2023/10/20 01:15:05;;;;;;;9.25;8.35;;;19.10;71.20;20.60;98350.00;;;;5038770;28;20207;-76
2023/10/20 01:17:32;;;;;;;10.30;9.00;;;19.10;70.50;20.60;98358.00;;;;5031033;28;20706;-76
2023/10/20 01:20:03;;;;;;;10.85;9.07;;;19.10;70.50;20.60;98358.00;;;;5028719;28;20199;-75
2023/10/20 01:22:30;;;;;;;11.68;9.05;;;19.10;70.50;20.60;98353.00;;;;5030215;28;20192;-76
2023/10/20 01:24:58;;;;;;;13.23;10.20;;;19.00;70.40;20.60;98344.00;;;;5038362;28;20199;-76
2023/10/20 01:27:25;;;;;;;13.25;9.77;;;19.00;70.40;20.60;98343.00;;;;5028666;28;20196;-75
2023/10/20 01:29:52;;;;;;;10.43;8.60;;;19.00;70.40;20.60;98337.00;;;;5036719;28;20206;-75
2023/10/20 01:32:19;;;;;;;10.70;9.48;;;19.00;70.30;20.60;98333.00;;;;5035165;28;20706;-76
2023/10/20 01:34:46;;;;;;;11.95;10.05;;;19.00;70.30;20.60;98318.00;;;;5028420;28;20208;-76
2023/10/20 01:37:15;;;;;;;11.98;10.77;;;19.00;70.40;20.60;98321.00;;;;5038437;28;20220;-76
2023/10/20 01:39:42;;;;;;;12.25;10.48;;;19.00;70.20;20.50;98317.00;;;;5028047;28;20203;-76
2023/10/20 01:42:11;;;;;;;11.43;10.02;;;19.00;70.20;20.50;98310.00;;;;5041045;28;20195;-75
2023/10/20 01:44:39;;;;;;;11.00;9.90;;;19.00;70.20;20.50;98306.00;;;;5031077;28;20196;-75
2023/10/20 01:47:06;;;;;;;11.85;10.15;;;18.90;70.20;20.50;98307.00;;;;5038433;28;20692;-76
2023/10/20 01:49:33;;;;;;;11.30;10.15;;;18.90;70.10;20.50;98300.00;;;;5040920;28;20261;-76
2023/10/20 01:52:00;;;;;;;13.10;10.60;;;18.90;70.10;20.50;98301.00;;;;5037007;28;20204;-76
2023/10/20 01:54:27;;;;;;;11.95;10.30;;;18.90;70.10;20.40;98305.00;;;;5028239;28;20665;-76
2023/10/20 01:56:54;;;;;;;12.38;10.68;;;18.90;70.00;20.40;98301.00;;;;5035870;28;21093;-76
2023/10/20 01:59:22;;;;;;;16.30;12.10;;;18.80;69.90;20.40;98299.00;;;;5039480;28;20567;-75
2023/10/20 02:01:49;;;;;;;14.15;10.95;;;18.80;69.80;20.30;98288.00;;;;5028574;28;20208;-75
2023/10/20 02:04:16;;;;;;;13.55;12.02;;;18.80;69.80;20.30;98291.00;;;;5039315;28;20196;-75
2023/10/20 02:06:43;;;;;;;13.40;10.70;;;18.80;69.90;20.30;98292.00;;;;5033001;28;20197;-75
2023/10/20 02:09:11;;;;;;;13.25;11.88;;;18.70;69.80;20.20;98286.00;;;;5030916;28;20196;-75
2023/10/20 02:11:38;;;;;;;14.15;10.65;;;18.70;69.90;20.20;98291.00;;;;5041880;28;20375;-76
2023/10/20 02:14:06;;;;;;;12.43;11.10;;;18.70;69.80;20.20;98284.00;;;;5033903;28;20230;-76
2023/10/20 02:16:34;;;;;;;15.15;11.98;;;18.60;69.80;20.10;98286.00;;;;5036823;28;20196;-76
2023/10/20 02:19:01;;;;;;;14.90;11.88;;;18.60;69.80;20.10;98278.00;;;;5042812;28;21044;-76
2023/10/20 02:21:28;;;;;;;14.77;11.50;;;18.60;69.80;20.10;98267.00;;;;5028983;28;20313;-75
2023/10/20 02:23:55;;;;;;;13.05;11.35;;;18.60;69.80;20.10;98244.00;;;;5031705;28;20207;-75
2023/10/20 02:26:22;;;;;;;13.55;10.77;;;18.50;69.80;20.10;98249.00;;;;5032842;28;20203;-75
2023/10/20 02:28:49;;;;;;;12.32;10.98;;;18.50;69.80;20.00;98243.00;;;;5047012;28;20199;-75
2023/10/20 02:31:18;;;;;;;12.40;10.82;;;18.50;69.80;20.00;98228.00;;;;5041061;28;20284;-75
2023/10/20 02:33:47;;;;;;;14.98;11.35;;;18.50;69.80;20.00;98220.00;;;;5035874;28;20204;-76
2023/10/20 02:36:18;;;;;;;15.82;10.73;;;18.40;69.70;19.90;98218.00;;;;5045903;28;20661;-76
2023/10/20 02:38:48;;;;;;;14.38;11.25;;;18.40;69.70;19.90;98215.00;;;;5038127;28;20235;-75
2023/10/20 02:41:15;;;;;;;14.48;11.05;;;18.40;69.70;19.90;98207.00;;;;5047913;28;20215;-75
2023/10/20 02:43:42;;;;;;;13.57;11.27;;;18.30;69.60;19.80;98202.00;;;;5042877;28;20308;-76
2023/10/20 02:46:11;;;;;;;12.00;10.18;;;18.30;69.60;19.80;98203.00;;;;5038889;28;20199;-75
2023/10/20 02:48:38;;;;;;;14.60;11.13;;;18.30;69.70;19.80;98201.00;;;;5039613;28;20253;-76
2023/10/20 02:51:15;;;;;;;13.90;11.20;;;18.30;69.70;19.70;98185.00;;;;5034916;28;20325;-76
2023/10/20 02:53:42;;;;;;;14.60;10.57;;;18.20;69.70;19.70;98175.00;;;;5047109;28;20310;-75
2023/10/20 02:56:13;;;;;;;13.13;10.60;;;18.10;69.60;19.60;98165.00;;;;5041060;28;20199;-75
2023/10/20 02:58:43;;;;;;;14.45;10.73;;;18.10;70.30;19.70;98158.00;;;;5030780;28;20219;-76
2023/10/20 03:01:11;;;;;;;14.10;11.10;;;18.10;69.60;19.60;98150.00;;;;5049300;28;20239;-76
2023/10/20 03:03:38;;;;;;;13.55;10.70;;;18.10;69.60;19.60;98154.00;;;;5051647;28;20203;-75
2023/10/20 03:06:06;;;;;;;13.23;10.45;;;18.00;69.60;19.50;98156.00;;;;5051502;28;20200;-75
2023/10/20 03:08:38;;;;;;;14.80;10.82;;;18.00;69.50;19.50;98158.00;;;;5046920;28;20746;-75
2023/10/20 03:11:06;;;;;;;17.77;12.60;;;18.00;69.60;19.40;98171.00;;;;5046934;28;20203;-76
2023/10/20 03:13:34;;;;;;;16.73;12.13;;;18.00;69.60;19.40;98156.00;;;;5047715;28;20211;-76
2023/10/20 03:16:01;;;;;;;14.00;11.50;;;17.90;69.50;19.40;98165.00;;;;5050851;28;21085;-76
2023/10/20 03:18:28;;;;;;;13.30;10.52;;;17.80;69.50;19.40;98154.00;;;;5038850;28;20231;-75
2023/10/20 03:20:58;;;;;;;14.10;11.27;;;17.80;69.60;19.30;98145.00;;;;5031379;28;20232;-75
2023/10/20 03:23:25;;;;;;;12.70;10.02;;;17.70;69.60;19.30;98145.00;;;;5039401;28;20199;-75
2023/10/20 03:25:54;;;;;;;15.18;10.90;;;17.80;69.70;19.20;98135.00;;;;5050687;28;20700;-76
2023/10/20 03:28:21;;;;;;;13.90;10.85;;;17.70;69.60;19.20;98127.00;;;;5039606;28;20206;-76
2023/10/20 03:30:48;;;;;;;13.93;10.63;;;17.70;69.70;19.20;98114.00;;;;5030380;28;20201;-76
2023/10/20 03:33:16;;;;;;;19.05;13.05;;;17.70;69.70;19.20;98112.00;;;;5034093;28;20287;-75
2023/10/20 03:35:43;;;;;;;17.63;11.27;;;17.60;69.70;19.20;98106.00;;;;5030593;28;20200;-75
2023/10/20 03:38:10;;;;;;;16.27;12.10;;;17.60;69.80;19.10;98112.00;;;;5034629;28;20220;-75
2023/10/20 03:40:40;;;;;;;20.05;11.90;;;17.60;69.80;19.10;98113.00;;;;5044786;28;20578;-77
2023/10/20 03:43:10;;;;;;;13.95;10.43;;;17.60;69.70;19.10;98115.00;;;;5037905;28;20915;-76
2023/10/20 03:45:41;;;;;;;16.98;11.65;;;17.50;69.60;19.00;98122.00;;;;5043570;28;20210;-75
2023/10/20 03:48:10;;;;;;;14.82;10.45;;;17.50;69.70;19.00;98119.00;;;;5032548;28;20736;-76
2023/10/20 03:50:38;;;;;;;14.93;11.02;;;17.50;69.60;19.00;98110.00;;;;5046084;28;20200;-75
2023/10/20 03:53:06;;;;;;;17.13;12.15;;;17.40;69.60;19.00;98104.00;;;;5037252;28;20224;-76
2023/10/20 03:55:34;;;;;;;16.50;11.55;;;17.40;69.60;18.90;98093.00;;;;5050155;28;20237;-75
2023/10/20 03:58:02;;;;;;;16.27;11.52;;;17.40;69.50;18.90;98089.00;;;;5045461;28;20619;-76
2023/10/20 04:00:31;;;;;;;15.68;11.15;;;17.40;69.60;18.90;98071.00;;;;5049974;28;20379;-75
2023/10/20 04:02:59;;;;;;;17.30;12.02;;;17.30;69.60;18.90;98068.00;;;;5044731;28;20743;-76
2023/10/20 04:05:26;;;;;;;16.25;11.20;;;17.30;69.50;18.80;98074.00;;;;5049437;28;20286;-75
2023/10/20 04:07:54;;;;;;;14.98;10.68;;;17.20;69.50;18.80;98072.00;;;;5048892;28;20204;-76
2023/10/20 04:10:21;;;;;;;14.77;10.77;;;17.20;69.50;18.80;98075.00;;;;5044195;28;20198;-75
2023/10/20 04:12:48;;;;;;;15.20;10.45;;;17.20;69.50;18.70;98072.00;;;;5031123;28;20203;-76
2023/10/20 04:15:19;;;;;;;14.95;10.80;;;17.20;69.50;18.70;98077.00;;;;5047237;28;20192;-75
2023/10/20 04:17:52;;;;;;;16.13;10.77;;;17.20;69.50;18.70;98070.00;;;;5041264;28;20292;-76
2023/10/20 04:20:20;;;;;;;16.17;10.77;;;17.10;69.50;18.60;98059.00;;;;5035379;28;20204;-76
2023/10/20 04:22:52;;;;;;;17.23;10.95;;;17.10;69.50;18.60;98052.00;;;;5033457;28;20208;-76
2023/10/20 04:25:21;;;;;;;16.05;10.55;;;17.10;69.60;18.60;98052.00;;;;5044108;28;20661;-75
2023/10/20 04:27:57;;;;;;;17.85;11.35;;;17.00;69.50;18.60;98043.00;;;;5040195;28;20212;-76
2023/10/20 04:50:15;;;;;;;15.20;10.40;;;16.80;69.50;18.30;98014.00;;;;5030696;28;20675;-75
2023/10/20 04:52:55;;;;;;;16.63;10.95;;;16.70;69.40;18.20;98000.00;;;;5044107;28;20210;-75
2023/10/20 04:58:12;;;;;;;14.25;10.38;;;16.70;69.50;18.20;97988.00;;;;5037400;28;20278;-76
2023/10/20 05:00:41;;;;;;;14.98;11.05;;;16.60;69.40;18.20;97976.00;;;;5039885;28;20198;-76
2023/10/20 05:03:22;;;;;;;16.40;11.35;;;16.60;69.50;18.20;97986.00;;;;5048723;28;20196;-76
2023/10/20 05:05:58;;;;;;;15.00;10.38;;;16.60;69.60;18.10;97966.00;;;;5048378;28;20242;-75
2023/10/20 05:08:25;;;;;;;19.52;11.43;;;16.50;69.70;18.10;97972.00;;;;5048443;28;20568;-75
2023/10/20 05:10:54;;;;;;;13.73;10.15;;;16.50;69.60;18.10;97971.00;;;;5040699;28;20223;-76
2023/10/20 05:13:22;;;;;;;15.05;11.02;;;16.50;69.70;18.10;97966.00;;;;5045430;28;20249;-75
2023/10/20 05:15:50;;;;;;;16.20;11.32;;;16.50;69.80;18.00;97964.00;;;;5046458;28;20207;-76
2023/10/20 05:18:17;;;;;;;15.85;10.65;;;16.50;69.80;18.00;97959.00;;;;5036069;28;20254;-76
2023/10/20 05:20:46;;;;;;;16.98;12.25;;;16.40;69.70;18.00;97945.00;;;;5036876;28;20235;-75
2023/10/20 05:23:15;;;;;;;17.85;10.43;;;16.40;69.80;18.00;97939.00;;;;5040309;28;20196;-75
2023/10/20 05:25:49;;;;;;;17.83;11.23;;;16.40;69.70;17.90;97921.00;;;;5043904;28;20211;-76
2023/10/20 05:28:19;;;;;;;15.18;11.27;;;16.40;69.90;18.00;97912.00;;;;5039071;28;20199;-76
2023/10/20 05:30:47;;;;;;;16.35;9.75;;;16.30;69.70;17.90;97912.00;;;;5044449;28;20258;-75
2023/10/20 05:33:15;;;;;;;13.38;9.68;;;16.40;69.80;17.90;97920.00;;;;5043759;28;20192;-76
2023/10/20 05:35:43;;;;;;;17.98;10.63;;;16.40;69.90;17.90;97917.00;;;;5044931;28;20203;-76
2023/10/20 05:38:10;;;;;;;13.40;9.68;;;16.30;69.80;17.90;97918.00;;;;5041962;28;20243;-76
2023/10/20 05:40:39;;;;;;;13.10;8.85;;;16.30;69.90;17.90;97909.00;;;;5044228;28;20203;-76
2023/10/20 05:43:06;;;;;;;13.57;9.55;;;16.30;69.90;17.90;97907.00;;;;5047476;28;20218;-77
2023/10/20 05:45:39;;;;;;;13.10;9.52;;;16.30;69.90;17.80;97911.00;;;;5046480;28;20658;-76
2023/10/20 05:48:07;;;;;;;11.80;8.73;;;16.30;70.00;17.90;97919.00;;;;5045493;28;20200;-76
2023/10/20 05:50:36;;;;;;;13.13;8.35;;;16.30;69.90;17.90;97917.00;;;;5045476;28;20199;-76
2023/10/20 05:53:04;;;;;;;11.68;8.38;;;16.30;69.90;17.90;97926.00;;;;5046018;28;20257;-76
2023/10/20 05:55:32;;;;;;;11.98;8.48;;;16.30;69.90;17.90;97930.00;;;;5041468;28;20195;-76
2023/10/20 05:58:00;;;;;;;13.00;8.20;;;16.30;69.90;17.80;97932.00;;;;5047338;28;20220;-76
2023/10/20 06:00:28;;;;;;;9.10;6.97;;;16.20;69.80;17.90;97935.00;;;;5042567;28;20195;-76
2023/10/20 06:02:55;;;;;;;12.77;7.90;;;16.20;69.80;17.90;97925.00;;;;5037589;28;20291;-76
2023/10/20 06:05:22;;;;;;;10.73;7.47;;;16.20;69.80;17.90;97918.00;;;;5044357;28;20191;-76
2023/10/20 06:07:49;;;;;;;9.57;7.10;;;16.20;69.80;17.90;97926.00;;;;5032553;28;20230;-76
2023/10/20 06:10:22;;;;;;;9.57;7.00;;;16.20;69.90;17.90;97929.00;;;;5029232;28;20246;-77
2023/10/20 06:12:51;;;;;;;7.78;6.20;;;16.20;69.80;17.80;97924.00;;;;5027663;28;20204;-77
2023/10/20 06:15:20;;;;;;;8.43;5.85;;;16.20;70.30;17.80;97922.00;;;;5043615;28;20640;-76
2023/10/20 06:17:47;;;;;;;8.60;5.90;;;16.20;69.70;17.80;97928.00;;;;5046911;28;20293;-76
2023/10/20 06:20:15;;;;;;;8.45;6.35;;;16.20;69.70;17.80;97924.00;;;;5047105;28;20682;-77
2023/10/20 06:22:42;;;;;;;7.53;5.10;;;16.10;69.50;17.80;97907.00;;;;5046457;28;20206;-77
2023/10/20 06:25:13;;;;;;;6.40;5.03;;;16.20;69.60;17.80;97901.00;;;;5047752;28;20204;-76
2023/10/20 06:27:45;;;;;;;5.95;4.78;;;16.10;69.50;17.70;97908.00;;;;5047040;28;20219;-76
2023/10/20 06:30:21;;;;;;;6.60;4.53;;;16.10;69.50;17.70;97907.00;;;;5040121;28;20275;-76
2023/10/20 06:33:12;;;;;;;5.80;4.70;;;16.10;69.50;17.70;97906.00;;;;5035345;28;20200;-76
2023/10/20 06:35:50;;;;;;;6.45;4.70;;;16.10;69.50;17.70;97913.00;;;;5036124;28;20201;-76
2023/10/20 06:38:20;;;;;;;6.88;5.15;;;16.10;69.40;17.70;97918.00;;;;5047272;28;20227;-76
2023/10/20 06:40:48;;;;;;;6.22;4.95;;;16.00;69.40;17.70;97914.00;;;;5049468;28;20258;-77
2023/10/20 06:43:16;;;;;;;5.93;4.68;;;16.00;69.40;17.70;97919.00;;;;5051288;28;20223;-77
2023/10/20 06:45:44;;;;;;;5.85;4.25;;;16.00;69.50;17.60;97894.00;;;;5050384;28;20235;-77
2023/10/20 06:48:14;;;;;;;7.43;5.28;;;16.00;69.50;17.60;97900.00;;;;5050323;28;20202;-77
2023/10/20 06:50:42;;;;;;;6.22;5.13;;;16.00;69.50;17.60;97898.00;;;;5046801;28;20204;-76
2023/10/20 06:53:09;;;;;;;6.05;4.82;;;16.00;69.50;17.60;97905.00;;;;5040538;28;20200;-76
2023/10/20 06:55:36;;;;;;;6.32;4.95;;;15.90;69.40;17.60;97908.00;;;;5048210;28;20192;-77
2023/10/20 06:58:03;;;;;;;6.38;4.50;;;16.00;69.50;17.60;97900.00;;;;5040247;28;20207;-77
2023/10/20 07:00:30;;;;;;;6.13;4.47;;;15.90;69.40;17.60;97892.00;;;;5044048;28;20207;-77
2023/10/20 07:02:57;;;;;;;5.72;4.70;;;15.90;69.50;17.50;97893.00;;;;5031730;28;20207;-77
2023/10/20 07:05:25;;;;;;;5.30;4.68;;;15.90;69.50;17.50;97888.00;;;;5046773;28;20199;-77
2023/10/20 07:07:52;;;;;;;6.63;4.60;;;15.90;69.50;17.50;97891.00;;;;5051205;28;20253;-77
2023/10/20 07:10:21;;;;;;;5.40;4.70;;;15.90;69.60;17.50;97888.00;;;;5038846;28;20200;-77
2023/10/20 07:12:49;;;;;;;7.03;5.20;;;15.90;69.50;17.50;97884.00;;;;5045979;28;20647;-77
2023/10/20 07:15:17;;;;;;;7.43;5.80;;;15.80;69.50;17.50;97888.00;;;;5046164;28;20214;-77
2023/10/20 07:17:44;;;;;;;7.60;5.70;;;15.80;69.50;17.50;97883.00;;;;5047418;28;20703;-77
2023/10/20 07:20:12;;;;;;;6.65;5.00;;;15.80;69.50;17.50;97887.00;;;;5047666;28;20609;-77
2023/10/20 07:22:40;;;;;;;6.78;5.18;;;15.80;69.60;17.50;97903.00;;;;5043842;28;20204;-77
2023/10/20 07:25:08;;;;;;;7.78;5.65;;;15.80;69.60;17.40;97893.00;;;;5045140;28;20693;-76
2023/10/20 07:27:35;;;;;;;8.63;5.18;;;15.80;69.60;17.40;97891.00;;;;5041372;28;20202;-77
2023/10/20 07:30:06;;;;;;;8.55;5.85;;;15.80;69.60;17.40;97886.00;;;;5030083;28;20307;-76
2023/10/20 07:32:35;;;;;;;6.53;4.60;;;15.70;69.60;17.40;97875.00;;;;5046915;28;20665;-77
2023/10/20 07:35:02;;;;;;;7.82;5.40;;;15.70;69.60;17.40;97882.00;;;;5050009;28;20560;-77
2023/10/20 07:37:30;;;;;;;7.28;5.25;;;15.70;69.50;17.40;97881.00;;;;5048529;28;20553;-78
2023/10/20 07:39:58;;;;;;;8.48;5.22;;;15.70;69.50;17.40;97874.00;;;;5044518;28;20223;-77
2023/10/20 07:42:25;;;;;;;6.43;4.80;;;15.70;69.50;17.40;97869.00;;;;5044737;28;20748;-78
2023/10/20 07:44:52;;;;;;;6.70;4.55;;;15.70;69.50;17.30;97879.00;;;;5037417;28;20196;-77
2023/10/20 07:47:19;;;;;;;5.50;4.10;;;15.70;69.50;17.30;97881.00;;;;5046241;28;20195;-79
2023/10/20 07:49:46;;;;;;;8.20;4.57;;;15.60;69.50;17.30;97876.00;;;;5042880;28;20216;-76
2023/10/20 07:52:13;;;;;;;6.63;5.32;;;15.60;69.50;17.30;97872.00;;;;5045657;28;20246;-77
2023/10/20 07:54:40;;;;;;;7.00;4.97;;;15.60;69.50;17.30;97882.00;;;;5036960;28;20201;-77
2023/10/20 07:57:09;;;;;;;6.22;4.82;;;15.60;69.50;17.30;97877.00;;;;5045376;28;20204;-76
2023/10/20 07:59:36;;;;;;;7.20;4.88;;;15.60;69.50;17.20;97883.00;;;;5048310;28;20224;-76
2023/10/20 08:02:05;;;;;;;6.63;4.72;;;15.60;69.50;17.20;97878.00;;;;5033503;28;20211;-77
2023/10/20 08:04:32;;;;;;;7.07;5.05;;;15.50;69.40;17.20;97872.00;;;;5048619;28;20206;-76
2023/10/20 08:06:59;;;;;;;6.80;4.50;;;15.50;69.40;17.20;97859.00;;;;5044282;28;20254;-76
2023/10/20 08:09:27;;;;;;;5.78;4.05;;;15.50;69.40;17.20;97869.00;;;;5049337;28;20692;-76
2023/10/20 08:11:54;;;;;;;7.53;5.05;;;15.50;69.80;17.20;97857.00;;;;5049422;28;20199;-76
2023/10/20 08:14:23;;;;;;;7.35;4.72;;;15.50;69.50;17.10;97844.00;;;;5048442;28;20620;-76
2023/10/20 08:16:50;;;;;;;6.32;4.45;;;15.50;69.50;17.10;97842.00;;;;5032805;28;20200;-76
2023/10/20 08:19:17;;;;;;;5.70;3.90;;;15.50;69.50;17.10;97835.00;;;;5043624;28;20235;-76
2023/10/20 08:21:44;;;;;;;6.72;4.25;;;15.40;69.40;17.10;97843.00;;;;5042417;28;20242;-76
2023/10/20 08:24:11;;;;;;;6.28;3.92;;;15.40;69.40;17.00;97844.00;;;;5038645;28;20200;-76
2023/10/20 08:26:39;;;;;;;5.32;3.97;;;15.40;69.50;17.00;97833.00;;;;5047403;28;20200;-76
2023/10/20 08:29:11;;;;;;;4.93;3.65;;;15.40;69.50;17.00;97839.00;;;;5036576;28;20679;-76
2023/10/20 08:31:39;;;;;;;5.32;3.78;;;15.30;69.40;16.90;97835.00;;;;5040517;28;20223;-76
2023/10/20 08:34:06;;;;;;;4.85;3.30;;;15.30;69.40;16.90;97839.00;;;;5042674;28;20189;-76
2023/10/20 08:36:33;;;;;;;4.55;2.88;;;15.30;69.40;16.90;97846.00;;;;5047054;28;20199;-77
2023/10/20 08:39:01;;;;;;;4.68;2.97;;;15.30;69.40;16.90;97851.00;;;;5046886;28;20688;-77
2023/10/20 08:41:28;;;;;;;4.65;3.13;;;15.20;69.40;16.90;97845.00;;;;5047647;28;20217;-77
2023/10/20 08:43:56;;;;;;;4.22;2.88;;;15.30;69.40;16.80;97839.00;;;;5049308;28;20216;-76
2023/10/20 08:46:23;;;;;;;3.50;2.53;;;15.20;69.30;16.80;97840.00;;;;5047881;28;20665;-77
2023/10/20 08:48:53;;;;;;;3.85;2.78;;;15.20;69.30;16.80;97835.00;;;;5044857;28;20199;-77
2023/10/20 08:51:22;;;;;;;3.80;2.55;;;15.20;69.40;16.80;97845.00;;;;5038328;28;20210;-76
2023/10/20 08:53:49;;;;;;;3.20;2.42;;;15.20;69.50;16.80;97848.00;;;;5034234;28;20199;-76
2023/10/20 08:56:16;;;;;;;2.90;2.20;;;15.10;69.40;16.70;97852.00;;;;5044905;28;20568;-77
2023/10/20 08:58:47;;;;;;;3.58;2.28;;;15.10;69.40;16.70;97852.00;;;;5048741;28;20203;-77
2023/10/20 09:01:14;;;;;;;2.78;2.30;;;15.10;69.40;16.70;97841.00;;;;5038692;28;20203;-76
2023/10/20 09:03:43;;;;;;;2.60;2.13;;;15.10;69.50;16.70;97829.00;;;;5030248;28;20206;-76
2023/10/20 09:06:14;;;;;;;3.13;2.35;;;15.10;69.50;16.70;97822.00;;;;5037909;28;21030;-77
2023/10/20 09:08:43;;;;;;;1.88;1.65;;;15.10;69.40;16.60;97827.00;;;;5036634;28;20192;-77
2023/10/20 09:11:12;;;;;;;3.30;2.42;;;15.10;69.40;16.60;97816.00;;;;5036639;28;20191;-77
2023/10/20 09:13:44;;;;;;;2.60;1.80;;;15.00;69.40;16.60;97832.00;;;;5044284;28;20214;-77
2023/10/20 09:16:13;;;;;;;2.00;1.70;;;15.00;69.40;16.60;97814.00;;;;5046709;28;20744;-77
2023/10/20 09:18:44;;;;;;;3.17;1.92;;;15.00;69.40;16.50;97828.00;;;;5039745;28;20231;-77
2023/10/20 09:21:14;;;;;;;1.80;1.20;;;15.00;69.50;16.50;97827.00;;;;5039510;28;20210;-77
2023/10/20 09:23:55;;;;;;;2.35;1.60;;;14.90;69.50;16.50;97834.00;;;;5046380;28;20206;-77
2023/10/20 09:26:22;;;;;;;2.15;1.58;;;14.90;69.60;16.60;97845.00;;;;5044068;28;20199;-77
2023/10/20 09:28:50;;;;;;;1.70;1.40;;;14.90;69.50;16.60;97835.00;;;;5047871;28;20204;-77
2023/10/20 09:31:19;;;;;;;2.60;1.50;;;14.90;69.40;16.50;97833.00;;;;5029535;28;20210;-78
2023/10/20 09:33:46;;;;;;;1.58;1.30;;;14.90;69.40;16.50;97843.00;;;;5036706;28;20196;-77
2023/10/20 09:36:15;;;;;;;2.15;1.20;;;14.90;69.40;16.50;97832.00;;;;5031605;28;20199;-77
2023/10/20 09:38:46;;;;;;;2.53;0.88;;;14.90;69.40;16.50;97843.00;;;;5030110;28;20319;-77
2023/10/20 09:41:17;;;;;;;1.20;0.82;;;14.80;69.40;16.50;97832.00;;;;5028654;28;20223;-77
2023/10/20 09:43:48;;;;;;;1.25;1.02;;;14.80;69.40;16.40;97824.00;;;;5042745;28;20234;-77
2023/10/20 09:46:53;;;;;;;2.05;1.08;;;14.80;69.40;16.30;97812.00;;;;5047869;28;20199;-77
2023/10/20 09:49:25;;;;;;;3.53;1.00;;;14.80;69.50;16.30;97814.00;;;;5049014;28;20195;-77
2023/10/20 09:51:57;;;;;;;1.45;1.00;;;14.80;69.40;16.30;97813.00;;;;5049283;28;20187;-77
2023/10/20 09:54:31;;;;;;;1.75;1.02;;;14.80;69.40;16.30;97816.00;;;;5048137;28;20637;-77
2023/10/20 09:56:59;;;;;;;1.08;0.98;;;14.80;69.50;16.40;97811.00;;;;5028883;28;20195;-77
2023/10/20 09:59:27;;;;;;;1.10;0.70;;;14.80;69.50;16.30;97814.00;;;;5028546;28;20232;-77
2023/10/20 10:01:56;;;;;;;1.58;0.77;;;14.70;69.50;16.30;97808.00;;;;5036439;28;20310;-77
2023/10/20 10:04:28;;;;;;;2.47;1.10;;;14.70;69.60;16.30;97805.00;;;;5030549;28;20259;-77
2023/10/20 10:07:03;;;;;;;2.33;0.80;;;14.70;69.60;16.30;97803.00;;;;5040912;28;20715;-77
2023/10/20 10:09:37;;;;;;;1.20;0.70;;;14.70;69.60;16.30;97807.00;;;;5052023;28;20260;-76
2023/10/20 10:12:09;;;;;;;1.05;0.60;;;14.70;69.60;16.30;97803.00;;;;5052060;28;20203;-77
2023/10/20 10:14:37;;;;;;;1.38;0.75;;;14.70;69.50;16.30;97799.00;;;;5051803;28;20654;-77
2023/10/20 10:17:09;;;;;;;1.88;0.90;;;14.70;69.60;16.20;97793.00;;;;5042202;28;20219;-77
2023/10/20 10:19:46;;;;;;;1.58;0.80;;;14.60;69.60;16.30;97798.00;;;;5051576;28;20234;-77
2023/10/20 10:22:16;;;;;;;1.40;0.63;;;14.70;69.80;16.30;97797.00;;;;5051933;28;20198;-77
2023/10/20 10:24:52;;;;;;;1.02;0.52;;;14.70;69.80;16.20;97789.00;;;;5051634;28;20220;-77
2023/10/20 10:27:22;;;;;;;2.15;0.73;;;14.70;69.80;16.30;97779.00;;;;5043974;28;20199;-77
2023/10/20 10:29:53;;;;;;;1.30;0.82;;;14.60;69.70;16.30;97781.00;;;;5052552;28;20196;-77
2023/10/20 10:32:22;;;;;;;1.15;0.63;;;14.70;69.80;16.30;97782.00;;;;5038648;28;20270;-77
2023/10/20 10:34:53;;;;;;;1.98;0.63;;;14.70;69.90;16.30;97779.00;;;;5034222;28;20282;-77
2023/10/20 10:37:33;;;;;;;0.95;0.75;;;14.60;69.80;16.20;97778.00;;;;5045677;28;20278;-76
2023/10/20 10:40:09;;;;;;;1.08;0.32;;;14.60;69.80;16.20;97773.00;;;;5031885;28;20235;-76
2023/10/20 10:42:42;;;;;;;2.17;0.40;;;14.60;69.80;16.30;97767.00;;;;5034767;28;20195;-77
2023/10/20 10:45:22;;;;;;;0.98;0.60;;;14.70;69.90;16.20;97761.00;;;;5038810;28;20208;-77
2023/10/20 10:47:51;;;;;;;0.55;0.40;;;14.70;70.00;16.40;97754.00;;;;5041278;28;20227;-77
2023/10/20 10:50:20;;;;;;;1.38;0.50;;;14.70;70.00;16.40;97754.00;;;;5048239;28;20206;-77
2023/10/20 10:52:48;;;;;;;2.05;0.60;;;14.70;70.00;16.40;97751.00;;;;5038592;28;20199;-77
2023/10/20 10:55:15;;;;;;;0.77;0.45;;;14.70;70.00;16.40;97747.00;;;;5051269;28;20200;-77
2023/10/20 10:57:43;;;;;;;0.85;0.30;;;14.70;69.90;16.40;97748.00;;;;5050477;28;20195;-77
2023/10/20 11:00:15;;;;;;;0.68;0.47;;;14.70;69.90;16.40;97742.00;;;;5051596;28;20620;-77
2023/10/20 11:02:44;;;;;;;1.73;0.85;;;14.70;69.80;16.40;97735.00;;;;5049150;28;20269;-77
2023/10/20 11:05:11;;;;;;;1.33;0.90;;;14.70;69.80;16.40;97727.00;;;;5051162;28;20199;-78
2023/10/20 11:07:38;;;;;;;0.80;0.60;;;14.70;69.80;16.40;97710.00;;;;5044651;28;20200;-77
2023/10/20 11:10:09;;;;;;;0.80;0.60;;;14.70;69.80;16.40;97704.00;;;;5040440;28;20207;-77
2023/10/20 11:12:36;;;;;;;0.95;0.32;;;14.70;69.80;16.40;97696.00;;;;5051072;28;20207;-77
2023/10/20 11:15:04;;;;;;;0.70;0.30;;;14.70;69.70;16.40;97688.00;;;;5050892;28;20560;-77
2023/10/20 11:17:32;;;;;;;1.40;0.50;;;14.70;69.80;16.40;97696.00;;;;5049236;28;20259;-77
2023/10/20 11:19:59;;;;;;;0.50;0.32;;;14.70;70.50;16.40;97693.00;;;;5031000;28;20278;-77